KSBD/SBD METAR and TAF weather

Enter ICAO airport designator
Station Type Date Time Source
KSBD METAR 2023/06/04 00:56 UTC NOAA

KSBD 040056Z 25010KT 6SM HZ CLR 28/10 A2986


Station Type Date Time Source
KSBD Decoded METAR 2023/06/04 00:56 UTC NOAA

Norton Air Force Base / San Bern, CA, United States (KSBD) 34-06N 117-14W
Jun 03, 2023 - 08:56 PM EDT / 2023.06.04 0056 UTC
Wind: from the WSW (250 degrees) at 12 MPH (10 KT):0
Visibility: 6 mile(s):0
Sky conditions: clear
Weather: haze
Temperature: 82 F (28 C)
Dew Point: 50 F (10 C)
Relative Humidity: 32%
Pressure (altimeter): 29.86 in. Hg (1011 hPa)
ob: KSBD 040056Z 25010KT 6SM HZ CLR 28/10 A2986
cycle: 1

Station Type Date Time Source
KSBD TAF 2023/06/03 18:34 UTC NOAA

TAF KSBD 031733Z 0318/0418 VRB04KT P6SM SKC
FM032200 25008KT P6SM SKC
FM040400 VRB04KT P6SM SKC

Example: see airport list